Time;durP1;ratioP1;P1;durP2;ratioP2;P2;SDS_P1;SDS_P2;PMS_P1;PMS_P2;Temp;Humidity;BMP_temperature;BMP_pressure;BME280_temperature;BME280_humidity;BME280_pressure;Samples;Min_cycle;Max_cycle;Signal;HPM_P1;HPM_P2
2021/07/05 00:00:49;;;;;;;8.45;6.40;;;;;;;24.33;59.40;100177.81;5067252;28;20405;-69
2021/07/05 00:03:34;;;;;;;9.98;8.13;;;;;;;24.30;58.95;100175.88;5061969;28;20048;-68
2021/07/05 00:06:19;;;;;;;13.00;6.90;;;;;;;24.18;59.68;100182.81;5063730;28;20040;-68
2021/07/05 00:09:05;;;;;;;9.13;6.90;;;;;;;24.17;59.83;100183.25;5064318;28;20060;-68
2021/07/05 00:11:50;;;;;;;8.10;6.28;;;;;;;24.25;59.39;100177.16;5065235;28;20045;-67
2021/07/05 00:14:36;;;;;;;8.15;6.55;;;;;;;24.26;59.38;100173.16;5068256;28;20516;-69
2021/07/05 00:17:21;;;;;;;9.43;7.40;;;;;;;24.24;59.30;100163.66;5064555;28;20048;-67
2021/07/05 00:20:07;;;;;;;8.40;7.55;;;;;;;24.23;59.60;100164.88;5062818;28;20052;-66
2021/07/05 00:22:52;;;;;;;7.65;6.82;;;;;;;24.19;59.40;100167.72;5068479;28;20040;-66
2021/07/05 00:25:38;;;;;;;7.32;6.60;;;;;;;24.16;59.52;100168.53;5067575;28;20087;-68
2021/07/05 00:28:23;;;;;;;9.02;7.57;;;;;;;24.15;59.52;100168.94;5063508;28;20051;-67
2021/07/05 00:31:09;;;;;;;9.10;6.78;;;;;;;24.11;59.42;100160.66;5063461;28;20052;-67
2021/07/05 00:33:53;;;;;;;9.50;6.90;;;;;;;24.12;59.36;100156.69;5067759;28;20043;-67
2021/07/05 00:36:38;;;;;;;13.88;7.72;;;;;;;24.09;59.41;100151.16;5065780;28;20047;-67
2021/07/05 00:39:23;;;;;;;8.40;6.97;;;;;;;24.08;59.36;100163.47;5061140;28;20059;-66
2021/07/05 00:42:08;;;;;;;8.32;7.43;;;;;;;24.03;59.52;100158.41;5068386;28;20081;-67
2021/07/05 00:44:54;;;;;;;10.05;7.32;;;;;;;24.00;59.43;100162.81;5064786;28;20044;-69
2021/07/05 00:47:40;;;;;;;7.80;7.00;;;;;;;23.96;59.50;100164.09;5063923;28;20051;-69
2021/07/05 00:50:27;;;;;;;8.05;6.70;;;;;;;23.94;59.70;100166.47;5069417;28;20405;-67
2021/07/05 00:53:12;;;;;;;10.30;6.32;;;;;;;23.95;59.32;100168.06;5065499;28;20067;-67
2021/07/05 00:55:58;;;;;;;8.00;6.32;;;;;;;23.98;59.24;100161.66;5059449;28;20044;-67
2021/07/05 00:58:43;;;;;;;8.43;5.00;;;;;;;24.00;59.07;100159.25;5061408;28;20056;-70
2021/07/05 01:01:29;;;;;;;5.00;4.15;;;;;;;23.91;59.21;100148.69;5065288;28;20040;-71
2021/07/05 01:04:14;;;;;;;4.18;3.10;;;;;;;23.97;58.88;100165.66;5060260;28;20048;-71
2021/07/05 01:06:59;;;;;;;5.20;2.58;;;;;;;23.97;58.69;100163.66;5070191;28;20064;-71
2021/07/05 01:09:44;;;;;;;4.10;2.53;;;;;;;23.97;58.51;100168.44;5063807;28;20060;-70
2021/07/05 01:12:29;;;;;;;5.88;2.35;;;;;;;23.95;58.59;100168.06;5062394;28;20047;-69
2021/07/05 01:15:20;;;;;;;2.33;1.55;;;;;;;23.96;58.46;100172.41;5074152;28;20154;-69
2021/07/05 01:18:06;;;;;;;8.98;2.03;;;;;;;23.98;58.54;100178.31;5074504;28;20035;-68
2021/07/05 01:20:51;;;;;;;1.83;1.20;;;;;;;23.99;58.53;100189.03;5072965;28;20051;-68
2021/07/05 01:23:36;;;;;;;1.60;1.33;;;;;;;23.96;58.38;100186.31;5072079;28;20051;-69
2021/07/05 01:26:21;;;;;;;2.17;0.93;;;;;;;23.96;58.17;100180.75;5068741;28;20052;-67
2021/07/05 01:29:06;;;;;;;1.20;0.95;;;;;;;23.97;58.20;100182.31;5070108;28;20540;-69
2021/07/05 01:31:51;;;;;;;1.42;1.00;;;;;;;23.96;58.34;100186.31;5072210;28;20064;-66
2021/07/05 01:34:37;;;;;;;1.75;1.02;;;;;;;23.95;58.16;100170.84;5065498;28;20040;-69
2021/07/05 01:37:22;;;;;;;2.70;1.17;;;;;;;23.93;57.96;100176.81;5067432;28;20119;-70
2021/07/05 01:40:14;;;;;;;3.40;1.00;;;;;;;23.92;57.80;100180.81;5079111;28;20052;-69
2021/07/05 01:42:59;;;;;;;3.05;0.93;;;;;;;23.87;57.74;100172.94;5071463;28;20417;-68
2021/07/05 01:45:45;;;;;;;1.67;1.10;;;;;;;23.79;57.99;100172.25;5068061;28;20523;-70
2021/07/05 01:48:30;;;;;;;7.10;2.22;;;;;;;23.65;58.02;100164.13;5063242;28;20055;-70
2021/07/05 01:51:15;;;;;;;3.22;1.13;;;;;;;23.61;58.50;100157.03;5064159;28;20513;-71
2021/07/05 01:54:00;;;;;;;1.30;1.08;;;;;;;23.61;58.58;100155.06;5063996;28;20051;-71
2021/07/05 01:56:46;;;;;;;2.13;0.90;;;;;;;23.67;57.74;100161.69;5063418;28;20052;-69
2021/07/05 01:59:30;;;;;;;2.00;1.02;;;;;;;23.43;57.88;100166.34;5072765;28;20056;-69
2021/07/05 02:02:15;;;;;;;2.72;0.95;;;;;;;23.06;59.02;100171.16;5067845;28;20048;-69
2021/07/05 02:05:00;;;;;;;1.35;0.80;;;;;;;23.19;59.39;100174.97;5063209;28;20051;-70
2021/07/05 02:07:47;;;;;;;4.43;1.23;;;;;;;23.28;59.30;100187.16;5063335;28;20059;-70
2021/07/05 02:10:35;;;;;;;1.80;1.02;;;;;;;23.42;59.32;100186.19;5077774;28;20051;-69
2021/07/05 02:13:23;;;;;;;1.60;1.00;;;;;;;23.24;58.88;100177.28;5081183;28;20047;-70
2021/07/05 02:16:08;;;;;;;1.60;0.77;;;;;;;23.13;59.37;100190.50;5080968;28;20409;-69
2021/07/05 02:18:53;;;;;;;0.75;0.75;;;;;;;23.34;59.49;100184.69;5054684;28;20052;-71
2021/07/05 02:21:37;;;;;;;0.77;0.73;;;;;;;23.51;58.97;100180.97;5069346;28;20051;-69
2021/07/05 02:24:23;;;;;;;1.67;0.90;;;;;;;23.55;58.32;100170.59;5066232;28;20410;-70
2021/07/05 02:27:07;;;;;;;2.70;0.90;;;;;;;23.06;58.75;100171.16;5066775;28;20136;-69
2021/07/05 02:29:52;;;;;;;2.30;1.02;;;;;;;23.00;58.87;100166.06;5060815;28;20048;-71
2021/07/05 02:32:40;;;;;;;1.00;0.90;;;;;;;22.92;59.46;100175.66;5069625;28;20056;-67
2021/07/05 02:35:28;;;;;;;3.30;1.00;;;;;;;22.75;59.92;100171.09;5061065;28;20044;-68
2021/07/05 02:38:13;;;;;;;2.03;1.00;;;;;;;22.69;59.83;100186.56;5055197;28;20064;-70
2021/07/05 02:40:58;;;;;;;2.17;1.00;;;;;;;22.46;60.18;100186.34;5065866;28;20413;-71
2021/07/05 02:43:43;;;;;;;4.63;1.33;;;;;;;22.29;60.63;100188.09;5080460;28;20504;-70
2021/07/05 02:46:28;;;;;;;1.65;0.80;;;;;;;22.04;61.32;100193.81;5080070;28;20063;-69
2021/07/05 02:49:13;;;;;;;1.98;1.00;;;;;;;22.06;62.10;100199.69;5062570;28;20052;-70
2021/07/05 02:51:58;;;;;;;1.75;1.27;;;;;;;22.06;61.52;100196.94;5072227;28;20048;-70
2021/07/05 02:54:43;;;;;;;3.08;0.95;;;;;;;21.74;62.30;100199.84;5080278;28;20409;-70
2021/07/05 02:57:31;;;;;;;1.20;1.00;;;;;;;21.96;62.73;100197.78;5077152;28;20048;-68
2021/07/05 03:00:23;;;;;;;2.53;0.88;;;;;;;21.97;61.84;100202.13;5079246;28;20047;-70
2021/07/05 03:03:08;;;;;;;1.25;0.88;;;;;;;21.92;62.29;100201.75;5067124;28;20051;-67
2021/07/05 03:05:54;;;;;;;2.45;1.20;;;;;;;22.01;61.42;100193.81;5080306;28;20056;-70
2021/07/05 03:08:38;;;;;;;3.05;1.33;;;;;;;22.03;61.21;100191.44;5074294;28;20048;-70
2021/07/05 03:11:23;;;;;;;7.93;1.40;;;;;;;21.74;61.78;100202.63;5069024;28;20052;-69
2021/07/05 03:14:08;;;;;;;2.35;1.65;;;;;;;21.59;62.29;100205.84;5059892;28;20044;-69
2021/07/05 03:16:53;;;;;;;1.40;1.30;;;;;;;21.55;62.90;100203.09;5067505;28;20505;-70
2021/07/05 03:19:38;;;;;;;6.90;2.05;;;;;;;21.42;63.51;100201.97;5079744;28;20046;-68
2021/07/05 03:22:26;;;;;;;5.28;2.38;;;;;;;21.28;63.88;100208.34;5073053;28;20401;-70
2021/07/05 03:25:12;;;;;;;9.75;2.88;;;;;;;21.30;64.45;100196.88;5079722;28;20061;-69
2021/07/05 03:27:58;;;;;;;3.90;2.78;;;;;;;21.54;63.78;100203.50;5075931;28;20055;-70
2021/07/05 03:30:44;;;;;;;4.78;2.00;;;;;;;21.61;64.28;100189.66;5072841;28;20047;-69
2021/07/05 03:33:29;;;;;;;5.68;2.90;;;;;;;21.61;64.12;100192.41;5079543;28;20505;-69
2021/07/05 03:36:14;;;;;;;6.07;3.58;;;;;;;21.55;64.04;100194.81;5078522;28;20047;-69
2021/07/05 03:38:59;;;;;;;4.40;3.33;;;;;;;21.75;63.46;100192.34;5071685;28;20409;-70
2021/07/05 03:41:44;;;;;;;4.28;3.88;;;;;;;21.79;63.61;100204.16;5070229;28;20063;-70
2021/07/05 03:44:29;;;;;;;3.67;2.50;;;;;;;21.97;63.59;100212.41;5079253;28;20127;-69
2021/07/05 03:47:14;;;;;;;5.78;2.70;;;;;;;22.17;63.05;100219.81;5060461;28;20636;-70
2021/07/05 03:49:58;;;;;;;4.55;3.35;;;;;;;22.18;61.98;100218.63;5056985;28;20048;-67
2021/07/05 03:52:44;;;;;;;7.10;4.00;;;;;;;22.03;62.35;100214.38;5072203;28;20056;-69
2021/07/05 03:55:29;;;;;;;3.33;2.20;;;;;;;22.36;61.84;100226.00;5072935;28;20571;-69
2021/07/05 03:58:16;;;;;;;9.50;5.35;;;;;;;22.28;61.14;100233.59;5071843;28;20040;-68
2021/07/05 04:01:01;;;;;;;7.25;4.40;;;;;;;21.95;61.76;100214.78;5055502;28;20382;-69
2021/07/05 04:03:47;;;;;;;8.70;5.22;;;;;;;21.98;62.63;100225.88;5072223;28;20051;-68
2021/07/05 04:06:32;;;;;;;11.60;8.80;;;;;;;21.86;62.68;100226.28;5064505;28;20119;-68
2021/07/05 04:09:17;;;;;;;11.45;9.00;;;;;;;21.61;63.78;100231.94;5055106;28;20067;-69
2021/07/05 04:12:03;;;;;;;8.35;7.40;;;;;;;21.74;64.14;100208.16;5055530;28;20067;-69
2021/07/05 04:14:49;;;;;;;7.55;5.55;;;;;;;21.97;63.32;100213.22;5064718;28;20040;-69
2021/07/05 04:17:34;;;;;;;8.52;5.90;;;;;;;22.38;61.54;100215.31;5054580;28;20071;-69
2021/07/05 04:20:22;;;;;;;10.60;7.50;;;;;;;22.62;61.10;100208.78;5061332;28;20047;-69
2021/07/05 04:23:07;;;;;;;11.55;8.00;;;;;;;22.79;60.82;100218.19;5065744;28;20067;-68
2021/07/05 04:25:53;;;;;;;10.90;8.65;;;;;;;23.01;60.04;100225.88;5074066;28;20051;-68
2021/07/05 04:28:38;;;;;;;13.98;9.70;;;;;;;23.05;59.79;100228.63;5069766;28;20420;-68
2021/07/05 04:31:22;;;;;;;13.55;9.55;;;;;;;23.10;59.84;100227.38;5065308;28;20405;-68
2021/07/05 04:34:08;;;;;;;16.38;9.02;;;;;;;23.13;59.52;100227.34;5071107;28;20131;-68
2021/07/05 04:36:53;;;;;;;10.05;8.95;;;;;;;23.15;59.52;100215.84;5057791;28;20115;-67
2021/07/05 04:39:37;;;;;;;16.50;9.95;;;;;;;23.18;59.84;100212.22;5073542;28;20036;-67
2021/07/05 04:42:22;;;;;;;11.90;9.35;;;;;;;23.24;59.51;100216.13;5062692;28;20071;-68
2021/07/05 04:45:10;;;;;;;10.98;8.48;;;;;;;23.26;59.47;100217.28;5068453;28;20486;-69
2021/07/05 04:47:57;;;;;;;17.85;7.55;;;;;;;23.29;59.71;100221.22;5070545;28;20071;-68
2021/07/05 04:50:41;;;;;;;10.05;6.97;;;;;;;23.28;59.60;100217.66;5063311;28;20048;-68
2021/07/05 04:53:26;;;;;;;11.20;8.27;;;;;;;23.21;59.77;100216.97;5058408;28;20471;-68
2021/07/05 04:56:11;;;;;;;8.45;6.38;;;;;;;23.25;59.95;100220.50;5068181;28;20067;-68
2021/07/05 04:58:56;;;;;;;8.10;5.78;;;;;;;23.28;59.75;100219.66;5068254;28;20056;-67
2021/07/05 05:01:44;;;;;;;8.30;5.55;;;;;;;23.31;59.63;100222.41;5067251;28;20043;-68
2021/07/05 05:04:29;;;;;;;10.85;5.72;;;;;;;23.21;60.00;100230.84;5073109;28;20054;-70
2021/07/05 05:07:14;;;;;;;10.30;7.43;;;;;;;22.91;60.63;100232.31;5061255;28;20064;-68
2021/07/05 05:10:02;;;;;;;12.27;5.78;;;;;;;22.70;61.42;100229.72;5055684;28;20048;-68
2021/07/05 05:12:48;;;;;;;13.57;6.45;;;;;;;22.78;61.55;100231.25;5061526;28;20044;-69
2021/07/05 05:15:33;;;;;;;14.10;7.07;;;;;;;22.71;61.51;100236.84;5072089;28;20055;-68
2021/07/05 05:18:18;;;;;;;16.10;9.40;;;;;;;22.41;63.06;100239.44;5059360;28;20051;-68
2021/07/05 05:21:03;;;;;;;16.52;8.43;;;;;;;22.37;63.44;100235.91;5051288;28;20056;-68
2021/07/05 05:23:48;;;;;;;13.68;7.45;;;;;;;22.40;63.64;100241.41;5068667;28;20544;-68
2021/07/05 05:26:33;;;;;;;13.13;6.68;;;;;;;22.40;63.94;100243.41;5062077;28;20052;-67
2021/07/05 05:29:18;;;;;;;14.93;7.30;;;;;;;22.57;63.47;100253.56;5060181;28;20051;-68
2021/07/05 05:32:03;;;;;;;16.63;8.70;;;;;;;22.74;63.18;100246.34;5070499;28;20044;-66
2021/07/05 05:34:48;;;;;;;15.95;9.93;;;;;;;22.77;62.94;100242.75;5060682;28;20036;-66
2021/07/05 05:37:33;;;;;;;16.48;10.50;;;;;;;22.80;62.54;100247.47;5062854;28;20059;-66
2021/07/05 05:40:19;;;;;;;17.58;10.80;;;;;;;22.46;63.49;100242.56;5071421;28;20053;-67
2021/07/05 05:43:08;;;;;;;17.05;10.10;;;;;;;22.27;65.04;100243.09;5070403;28;20036;-66
2021/07/05 05:45:53;;;;;;;19.85;11.18;;;;;;;22.15;65.64;100249.09;5051795;28;20045;-68
2021/07/05 05:48:38;;;;;;;28.38;9.02;;;;;;;22.39;63.26;100250.16;5055426;28;20045;-67
2021/07/05 05:51:26;;;;;;;13.43;8.20;;;;;;;22.50;63.14;100253.63;5073815;28;20115;-67
2021/07/05 05:54:11;;;;;;;15.30;8.68;;;;;;;22.56;62.04;100252.78;5071919;28;20048;-68
2021/07/05 05:56:55;;;;;;;9.45;6.80;;;;;;;22.59;61.13;100259.50;5072612;28;20063;-67
2021/07/05 05:59:41;;;;;;;52.97;13.52;;;;;;;22.61;60.87;100265.41;5063482;28;20052;-68
2021/07/05 06:02:26;;;;;;;27.98;11.02;;;;;;;22.72;60.47;100249.50;5074602;28;20402;-67
2021/07/05 06:05:11;;;;;;;19.38;8.18;;;;;;;22.80;60.71;100264.13;5079619;28;20052;-68
2021/07/05 06:07:56;;;;;;;21.88;9.50;;;;;;;22.72;61.75;100260.59;5077402;28;20059;-67
2021/07/05 06:10:42;;;;;;;14.00;11.20;;;;;;;22.37;64.88;100260.84;5068265;28;20063;-67
2021/07/05 06:13:27;;;;;;;13.07;10.05;;;;;;;22.57;63.20;100267.44;5075077;28;20493;-67
2021/07/05 06:16:13;;;;;;;16.73;10.95;;;;;;;22.83;62.63;100277.16;5064963;28;20045;-68
2021/07/05 06:18:58;;;;;;;15.00;11.45;;;;;;;22.98;62.87;100282.16;5054204;28;20497;-67
2021/07/05 06:21:42;;;;;;;16.17;10.68;;;;;;;23.13;62.18;100279.25;5073157;28;20045;-67
2021/07/05 06:24:27;;;;;;;15.10;12.23;;;;;;;22.93;63.22;100260.44;5075698;28;20037;-68
2021/07/05 06:27:14;;;;;;;16.48;14.00;;;;;;;22.90;64.75;100255.72;5062963;28;20044;-67
2021/07/05 06:29:58;;;;;;;18.25;12.82;;;;;;;22.76;64.36;100258.59;5065662;28;20041;-67
2021/07/05 06:32:44;;;;;;;17.02;13.93;;;;;;;22.81;64.47;100252.59;5070483;28;20044;-67
2021/07/05 06:35:29;;;;;;;19.63;13.77;;;;;;;22.81;64.14;100260.13;5062788;28;20037;-68
2021/07/05 06:38:16;;;;;;;16.52;12.18;;;;;;;22.77;63.71;100260.16;5061415;28;20041;-67
2021/07/05 06:41:02;;;;;;;17.35;12.15;;;;;;;22.25;64.67;100264.88;5074949;28;20033;-68
2021/07/05 06:43:47;;;;;;;17.85;11.77;;;;;;;22.57;65.33;100271.00;5074940;28;20497;-70
2021/07/05 06:46:31;;;;;;;11.98;10.27;;;;;;;22.83;64.56;100283.50;5080583;28;20036;-69
2021/07/05 06:49:20;;;;;;;10.40;8.25;;;;;;;22.55;63.41;100289.22;5080625;28;20044;-69
2021/07/05 06:52:06;;;;;;;10.13;8.48;;;;;;;22.93;63.57;100285.38;5080486;28;20051;-68
2021/07/05 06:54:50;;;;;;;11.18;9.98;;;;;;;22.71;65.13;100281.19;5080368;28;20063;-68
2021/07/05 06:57:37;;;;;;;15.82;9.60;;;;;;;22.82;65.10;100304.09;5077915;28;20051;-70
2021/07/05 07:00:25;;;;;;;12.77;10.15;;;;;;;22.75;65.59;100301.41;5080286;28;20067;-70
2021/07/05 07:03:10;;;;;;;9.75;8.38;;;;;;;23.43;63.21;100296.78;5080281;28;20036;-69
2021/07/05 07:05:56;;;;;;;9.60;7.88;;;;;;;23.45;62.58;100310.28;5080376;28;20501;-70
2021/07/05 07:08:41;;;;;;;8.38;7.57;;;;;;;23.26;62.50;100313.63;5073283;28;20512;-70
2021/07/05 07:11:26;;;;;;;8.65;7.22;;;;;;;23.44;61.93;100317.00;5080010;28;20044;-70
2021/07/05 07:14:12;;;;;;;7.15;6.43;;;;;;;23.63;60.00;100332.31;5079949;28;20047;-71
2021/07/05 07:17:05;;;;;;;8.88;6.68;;;;;;;24.16;59.37;100324.13;5078944;28;20513;-70
2021/07/05 07:19:50;;;;;;;7.82;6.35;;;;;;;24.85;57.91;100319.19;5079901;28;20047;-70
2021/07/05 07:22:36;;;;;;;6.70;4.47;;;;;;;24.49;56.33;100328.06;5079813;28;20047;-70
2021/07/05 07:25:21;;;;;;;6.80;3.97;;;;;;;25.00;54.83;100324.13;5079719;28;20051;-71
2021/07/05 07:28:06;;;;;;;5.60;4.30;;;;;;;24.97;55.61;100321.41;5075625;28;20044;-69
2021/07/05 07:30:51;;;;;;;6.43;3.92;;;;;;;24.72;53.80;100327.34;5079604;28;20047;-70
2021/07/05 07:33:36;;;;;;;7.90;5.20;;;;;;;25.16;54.50;100333.81;5076689;28;20055;-70
2021/07/05 07:36:22;;;;;;;7.88;3.60;;;;;;;25.31;54.31;100338.72;5059787;28;20052;-70
2021/07/05 07:39:12;;;;;;;6.55;2.45;;;;;;;25.30;55.03;100339.91;5059143;28;20525;-69
2021/07/05 07:41:57;;;;;;;5.07;4.10;;;;;;;25.33;54.77;100332.72;5055967;28;20048;-69
2021/07/05 07:44:42;;;;;;;7.95;2.15;;;;;;;25.40;54.55;100336.16;5059311;28;20059;-69
2021/07/05 07:47:26;;;;;;;6.55;2.47;;;;;;;25.37;54.36;100323.09;5056880;28;20048;-69
2021/07/05 07:50:13;;;;;;;5.18;3.13;;;;;;;25.38;53.91;100333.03;5059264;28;20443;-68
2021/07/05 07:52:59;;;;;;;4.18;2.75;;;;;;;25.41;54.17;100332.16;5059124;28;20051;-67
2021/07/05 07:55:44;;;;;;;3.95;3.28;;;;;;;25.27;54.76;100329.63;5059090;28;20040;-68
2021/07/05 07:58:29;;;;;;;4.93;3.10;;;;;;;25.14;54.91;100320.34;5053860;28;20055;-68
2021/07/05 08:01:14;;;;;;;6.22;3.83;;;;;;;25.28;54.17;100328.44;5054394;28;20059;-69
2021/07/05 08:03:59;;;;;;;9.52;3.25;;;;;;;25.42;52.49;100319.81;5058495;28;20044;-69
2021/07/05 08:06:44;;;;;;;6.22;2.67;;;;;;;25.29;51.62;100320.88;5052215;28;20068;-69
2021/07/05 08:09:30;;;;;;;8.82;4.35;;;;;;;25.39;52.21;100320.69;5058855;28;20397;-69
2021/07/05 08:12:15;;;;;;;8.18;3.50;;;;;;;25.44;53.93;100327.75;5053193;28;20052;-69
2021/07/05 08:15:00;;;;;;;5.03;4.03;;;;;;;25.49;54.09;100327.25;5056653;28;20040;-69
2021/07/05 08:17:45;;;;;;;7.82;3.70;;;;;;;25.52;54.02;100335.53;5054551;28;20055;-69
2021/07/05 08:20:31;;;;;;;4.78;2.85;;;;;;;25.57;54.10;100334.28;5053028;28;20064;-67
2021/07/05 08:23:16;;;;;;;9.57;4.13;;;;;;;25.57;53.98;100331.50;5058584;28;20509;-69
2021/07/05 08:26:02;;;;;;;4.57;3.28;;;;;;;25.49;54.26;100328.06;5054715;28;20048;-68
2021/07/05 08:28:47;;;;;;;6.55;4.13;;;;;;;25.44;54.37;100330.53;5052517;28;20047;-68
2021/07/05 08:31:32;;;;;;;8.82;3.67;;;;;;;25.61;53.65;100331.44;5058624;28;20107;-67
2021/07/05 08:34:19;;;;;;;3.20;2.90;;;;;;;25.60;53.79;100341.03;5058530;28;20505;-68
2021/07/05 08:37:04;;;;;;;5.55;4.75;;;;;;;25.55;53.56;100342.28;5057227;28;20048;-69
2021/07/05 08:39:49;;;;;;;7.22;2.97;;;;;;;25.52;54.06;100341.09;5058304;28;20047;-68
2021/07/05 08:42:36;;;;;;;6.40;4.05;;;;;;;25.56;54.04;100346.63;5058433;28;20082;-69
2021/07/05 08:45:22;;;;;;;4.78;3.95;;;;;;;25.55;53.99;100351.41;5058312;28;20052;-68
2021/07/05 08:48:07;;;;;;;12.00;5.30;;;;;;;25.52;53.79;100345.88;5052131;28;20055;-68
2021/07/05 08:50:52;;;;;;;3.20;2.30;;;;;;;25.52;53.78;100341.09;5058331;28;20056;-69
2021/07/05 08:53:39;;;;;;;7.63;3.17;;;;;;;25.59;53.97;100348.59;5058307;28;20524;-69
2021/07/05 08:56:23;;;;;;;7.05;5.75;;;;;;;25.49;53.58;100350.31;5058307;28;20039;-68
2021/07/05 08:59:08;;;;;;;5.80;4.15;;;;;;;25.54;53.63;100368.53;5058292;28;20056;-69
2021/07/05 09:01:53;;;;;;;6.90;5.85;;;;;;;25.53;53.72;100362.19;5058266;28;20044;-69
2021/07/05 09:04:38;;;;;;;8.13;5.03;;;;;;;25.49;53.80;100361.47;5058092;28;20060;-68
2021/07/05 09:07:23;;;;;;;12.32;5.93;;;;;;;25.48;53.26;100359.88;5055975;28;20410;-69
2021/07/05 09:10:09;;;;;;;4.45;4.03;;;;;;;25.54;53.67;100363.75;5058120;28;20434;-69
2021/07/05 09:13:22;;;;;;;4.25;3.72;;;;;;;25.59;53.30;100365.28;5057409;28;20059;-68
2021/07/05 09:16:07;;;;;;;6.15;3.70;;;;;;;25.55;53.83;100361.75;5058090;28;20083;-69
2021/07/05 09:18:54;;;;;;;6.80;2.70;;;;;;;25.51;53.64;100361.81;5051811;28;20064;-68
2021/07/05 09:21:39;;;;;;;7.68;6.88;;;;;;;25.51;53.45;100355.44;5055618;28;20071;-68
2021/07/05 09:24:35;;;;;;;9.85;6.22;;;;;;;25.54;53.48;100366.53;5058029;28;20108;-69
2021/07/05 09:27:25;;;;;;;6.25;2.50;;;;;;;25.66;53.42;100350.44;5055912;28;20418;-68
2021/07/05 09:30:10;;;;;;;9.32;6.28;;;;;;;25.67;54.06;100352.00;5058065;28;20044;-68
2021/07/05 09:33:13;;;;;;;7.65;4.65;;;;;;;25.70;54.37;100356.75;5057096;28;20072;-68
2021/07/05 09:36:00;;;;;;;13.07;7.63;;;;;;;25.72;54.38;100359.88;5058099;28;20044;-68
2021/07/05 09:38:46;;;;;;;12.90;7.35;;;;;;;25.85;53.41;100358.81;5055797;28;20052;-68
2021/07/05 09:41:34;;;;;;;9.27;3.95;;;;;;;25.93;52.67;100370.59;5061588;28;20048;-69
2021/07/05 09:44:21;;;;;;;14.13;7.20;;;;;;;25.97;50.83;100360.16;5061501;28;20419;-68
2021/07/05 09:47:15;;;;;;;7.50;4.60;;;;;;;25.99;51.74;100363.31;5057976;28;20063;-68
2021/07/05 09:50:16;;;;;;;8.38;6.80;;;;;;;25.87;51.90;100363.97;5055716;28;20052;-68
2021/07/05 09:53:25;;;;;;;9.63;3.70;;;;;;;25.93;53.04;100376.19;5061454;28;20400;-69
2021/07/05 09:56:20;;;;;;;3.72;2.67;;;;;;;25.93;52.78;100376.97;5056142;28;20060;-68
2021/07/05 09:59:22;;;;;;;18.05;10.68;;;;;;;25.90;53.06;100380.63;5061461;28;20048;-68
2021/07/05 10:02:09;;;;;;;12.48;9.85;;;;;;;25.90;53.40;100374.25;5061361;28;20040;-68
2021/07/05 10:05:09;;;;;;;11.80;7.25;;;;;;;25.92;53.91;100388.53;5061222;28;20055;-68
2021/07/05 10:07:59;;;;;;;12.68;9.55;;;;;;;25.93;52.73;100392.91;5057661;28;20410;-68
2021/07/05 10:10:46;;;;;;;12.48;5.70;;;;;;;25.97;52.58;100390.81;5055872;28;20052;-68
2021/07/05 10:13:30;;;;;;;16.92;9.52;;;;;;;25.84;52.86;100393.47;5058676;28;20056;-68
2021/07/05 10:16:16;;;;;;;10.50;8.65;;;;;;;25.80;53.64;100386.41;5061153;28;20064;-68
2021/07/05 10:19:01;;;;;;;9.88;8.32;;;;;;;25.91;51.80;100384.16;5054560;28;20056;-69
2021/07/05 10:21:46;;;;;;;8.80;6.93;;;;;;;25.89;51.94;100384.63;5061232;28;20055;-69
2021/07/05 10:24:31;;;;;;;11.20;8.73;;;;;;;25.77;52.51;100387.22;5060713;28;20048;-69
2021/07/05 10:27:16;;;;;;;10.80;6.88;;;;;;;25.77;51.75;100390.03;5061596;28;20529;-69
2021/07/05 10:30:05;;;;;;;11.82;7.80;;;;;;;25.88;51.01;100396.97;5070284;28;20047;-69
2021/07/05 10:32:51;;;;;;;6.95;3.50;;;;;;;25.92;51.79;100396.91;5072505;28;20055;-69
2021/07/05 10:35:48;;;;;;;9.93;5.50;;;;;;;25.97;51.40;100391.63;5061156;28;20047;-68
2021/07/05 10:38:42;;;;;;;13.52;9.65;;;;;;;25.97;52.30;100393.63;5068335;28;20053;-68
2021/07/05 10:41:39;;;;;;;8.63;7.35;;;;;;;26.03;51.99;100394.69;5056690;28;20048;-69
2021/07/05 10:44:43;;;;;;;11.48;10.15;;;;;;;26.10;52.99;100393.78;5064162;28;20051;-68
2021/07/05 10:47:42;;;;;;;13.55;9.18;;;;;;;26.10;52.86;100402.94;5076629;28;20044;-68
2021/07/05 10:50:41;;;;;;;12.18;8.82;;;;;;;26.17;52.26;100397.19;5074848;28;20047;-68
2021/07/05 10:53:32;;;;;;;6.97;5.78;;;;;;;26.19;51.46;100389.19;5070962;28;20071;-68
2021/07/05 10:56:30;;;;;;;11.18;9.98;;;;;;;26.30;52.37;100387.00;5080392;28;20500;-69
2021/07/05 10:59:16;;;;;;;11.57;5.32;;;;;;;26.23;51.69;100389.13;5080127;28;20111;-68
2021/07/05 11:02:21;;;;;;;10.52;9.20;;;;;;;26.21;52.71;100378.38;5077229;28;20056;-69
2021/07/05 11:05:26;;;;;;;;;;;;;;;26.28;52.19;100397.00;5074504;28;20047;-69
2021/07/05 11:08:42;;;;;;;7.13;5.37;;;;;;;26.33;51.56;100394.50;5075789;28;19916;-68
2021/07/05 11:11:34;;;;;;;5.47;4.85;;;;;;;26.30;51.59;100389.78;5078984;28;20073;-68
2021/07/05 11:14:25;;;;;;;18.05;10.20;;;;;;;26.52;51.73;100392.09;5079966;28;20179;-69
2021/07/05 11:17:17;;;;;;;10.45;8.80;;;;;;;26.79;50.36;100389.91;5078160;28;20036;-69
2021/07/05 11:20:14;;;;;;;8.25;6.78;;;;;;;26.83;49.64;100387.81;5070746;28;20391;-69
2021/07/05 11:23:01;;;;;;;26.25;8.63;;;;;;;26.92;49.01;100385.22;5067770;28;20047;-69
2021/07/05 11:25:46;;;;;;;7.28;5.55;;;;;;;26.91;48.84;100380.91;5079182;28;20047;-70
2021/07/05 11:28:31;;;;;;;4.20;3.30;;;;;;;26.80;49.18;100389.47;5073135;28;20052;-69
2021/07/05 11:31:20;;;;;;;5.70;3.55;;;;;;;26.78;49.05;100382.75;5076101;28;20051;-69
2021/07/05 11:34:29;;;;;;;6.70;4.65;;;;;;;26.82;48.01;100387.03;5078350;28;20501;-68
2021/07/05 11:37:14;;;;;;;6.30;2.90;;;;;;;26.86;48.84;100380.59;5076248;28;20031;-70
2021/07/05 11:39:59;;;;;;;6.05;4.65;;;;;;;27.00;48.42;100383.84;5074950;28;20071;-68
2021/07/05 11:42:53;;;;;;;6.05;5.10;;;;;;;27.11;46.49;100387.19;5066690;28;20068;-69
2021/07/05 11:45:46;;;;;;;8.32;3.95;;;;;;;27.11;47.23;100391.97;5066808;28;20520;-69
2021/07/05 11:48:40;;;;;;;5.28;3.47;;;;;;;27.19;46.39;100390.56;5073873;28;20401;-70
2021/07/05 11:51:27;;;;;;;5.10;4.43;;;;;;;27.21;45.21;100380.56;5070851;28;20501;-70
2021/07/05 11:54:21;;;;;;;9.98;6.20;;;;;;;27.26;46.76;100384.03;5076055;28;20099;-69
2021/07/05 11:57:07;;;;;;;6.78;3.63;;;;;;;27.28;46.50;100378.81;5070236;28;20120;-70
2021/07/05 11:59:54;;;;;;;6.85;3.00;;;;;;;27.32;46.13;100376.72;5070575;28;20511;-69
2021/07/05 12:02:39;;;;;;;3.90;2.40;;;;;;;27.44;45.75;100381.56;5060557;28;20252;-69
2021/07/05 12:05:24;;;;;;;7.80;5.10;;;;;;;27.61;43.88;100377.56;5066780;28;20064;-69
2021/07/05 12:08:12;;;;;;;4.45;2.30;;;;;;;27.66;44.01;100377.03;5054593;28;20052;-69
2021/07/05 12:10:57;;;;;;;4.40;2.15;;;;;;;27.48;45.51;100380.25;5069011;28;20044;-69
2021/07/05 12:13:42;;;;;;;3.47;2.75;;;;;;;27.49;44.40;100369.84;5055700;28;20048;-69
2021/07/05 12:16:27;;;;;;;6.05;2.70;;;;;;;27.47;44.17;100370.31;5058899;28;20043;-69
2021/07/05 12:19:13;;;;;;;2.05;1.70;;;;;;;27.42;45.22;100361.69;5057499;28;20056;-69
2021/07/05 12:22:01;;;;;;;5.50;1.77;;;;;;;27.42;45.55;100356.09;5058639;28;20043;-69
2021/07/05 12:24:47;;;;;;;5.90;4.32;;;;;;;27.60;44.05;100357.22;5059594;28;20051;-69
2021/07/05 12:27:35;;;;;;;3.72;3.25;;;;;;;27.59;44.81;100358.44;5066400;28;20055;-69
2021/07/05 12:30:24;;;;;;;5.85;4.25;;;;;;;27.75;43.80;100363.19;5075162;28;20417;-69
2021/07/05 12:33:08;;;;;;;5.07;3.38;;;;;;;27.68;43.94;100360.63;5072752;28;20051;-69
2021/07/05 12:35:58;;;;;;;7.20;3.40;;;;;;;27.75;43.14;100368.78;5075200;28;20051;-69
2021/07/05 12:39:06;;;;;;;6.18;2.55;;;;;;;27.88;42.94;100357.66;5060951;28;20048;-69
2021/07/05 12:41:50;;;;;;;5.78;3.20;;;;;;;27.82;43.93;100362.22;5059931;28;20071;-69
2021/07/05 12:44:37;;;;;;;4.78;3.83;;;;;;;27.79;42.69;100366.66;5055593;28;20548;-69
2021/07/05 12:47:23;;;;;;;4.35;2.92;;;;;;;27.91;43.11;100362.38;5056300;28;20402;-69
2021/07/05 12:50:08;;;;;;;10.63;3.00;;;;;;;28.13;41.38;100363.38;5052288;28;20060;-69
2021/07/05 12:53:07;;;;;;;3.33;2.10;;;;;;;28.21;40.63;100366.72;5056283;28;20052;-69